Time,TemperatureF,DewpointF,PressureIn,WindDirection,WindDirectionDegrees,WindSpeedMPH,WindSpeedGustMPH,Humidity,HourlyPrecipIn,Conditions,Clouds,dailyrainin,SoftwareType,DateUTC
2013-01-16 00:00:00,36.0,35.5,29.99,NNE,19,3.0,7.0,98,0.00,,---,0.00,VWS V14.01,2013-01-16 06:00:00,
2013-01-16 00:05:00,36.0,35.5,29.99,NNE,15,7.0,10.0,98,0.00,,---,0.00,VWS V14.01,2013-01-16 06:05:00,
2013-01-16 00:10:00,35.9,35.4,29.99,NNW,340,6.0,11.0,98,0.00,,---,0.00,VWS V14.01,2013-01-16 06:10:00,
2013-01-16 00:15:00,35.9,35.4,29.99,NNW,345,10.0,11.0,98,0.00,,---,0.00,VWS V14.01,2013-01-16 06:15:00,
2013-01-16 00:20:00,35.9,35.4,29.99,North,351,7.0,13.0,98,0.00,,---,0.00,VWS V14.01,2013-01-16 06:20:00,
2013-01-16 00:25:00,35.9,35.4,29.99,North,360,12.0,13.0,98,0.00,,---,0.00,VWS V14.01,2013-01-16 06:25:00,
2013-01-16 00:30:00,35.8,35.3,29.99,NNW,336,6.0,11.0,98,0.00,,---,0.00,VWS V14.01,2013-01-16 06:30:00,
2013-01-16 00:35:00,35.6,35.1,29.99,North,349,6.0,11.0,98,0.00,,---,0.00,VWS V14.01,2013-01-16 06:35:00,
2013-01-16 00:41:00,35.6,35.1,29.99,NNW,342,6.0,16.0,98,0.00,,---,0.00,VWS V14.01,2013-01-16 06:41:00,
2013-01-16 00:45:00,35.5,35.0,29.99,NNE,22,10.0,16.0,98,0.00,,---,0.00,VWS V14.01,2013-01-16 06:45:00,
2013-01-16 00:46:00,35.5,35.0,29.99,NNE,22,11.0,13.0,98,0.00,,---,0.00,VWS V14.01,2013-01-16 06:46:00,
2013-01-16 00:51:00,35.5,35.0,29.99,NNW,335,4.0,13.0,98,0.00,,---,0.00,VWS V14.01,2013-01-16 06:51:00,
2013-01-16 00:56:00,35.5,35.0,29.99,NNE,22,10.0,13.0,98,0.00,,---,0.00,VWS V14.01,2013-01-16 06:56:00,
2013-01-16 01:00:00,35.5,35.0,29.99,NNE,28,9.0,13.0,98,0.00,,---,0.00,VWS V14.01,2013-01-16 07:00:00,
2013-01-16 01:01:00,35.5,35.0,29.99,NE,35,10.0,11.0,98,0.00,,---,0.00,VWS V14.01,2013-01-16 07:01:00,
2013-01-16 01:06:00,35.5,35.0,29.99,NNE,33,5.0,12.0,98,0.00,,---,0.00,VWS V14.01,2013-01-16 07:06:00,
2013-01-16 01:11:00,35.6,35.1,29.99,NNE,24,8.0,12.0,98,0.00,,---,0.00,VWS V14.01,2013-01-16 07:11:00,
2013-01-16 01:15:00,35.5,35.0,29.99,NNE,13,6.0,12.0,98,0.00,,---,0.00,VWS V14.01,2013-01-16 07:15:00,
2013-01-16 01:16:00,35.5,35.0,29.99,NNE,19,6.0,11.0,98,0.00,,---,0.00,VWS V14.01,2013-01-16 07:16:00,
2013-01-16 01:21:00,35.5,35.0,29.99,NNE,15,6.0,13.0,98,0.00,,---,0.00,VWS V14.01,2013-01-16 07:21:00,
2013-01-16 01:26:00,35.3,34.8,29.99,NNE,28,7.0,14.0,98,0.00,,---,0.00,VWS V14.01,2013-01-16 07:26:00,
2013-01-16 01:30:00,35.3,34.8,29.99,NE,51,6.0,14.0,98,0.00,,---,0.00,VWS V14.01,2013-01-16 07:30:00,
2013-01-16 01:31:00,35.3,34.8,29.99,NNE,27,5.0,7.0,98,0.00,,---,0.00,VWS V14.01,2013-01-16 07:31:00,
2013-01-16 01:36:00,35.5,35.0,29.99,North,360,8.0,11.0,98,0.00,,---,0.00,VWS V14.01,2013-01-16 07:36:00,
2013-01-16 01:41:00,35.5,35.0,29.99,NNE,24,10.0,12.0,98,0.00,,---,0.00,VWS V14.01,2013-01-16 07:41:00,
2013-01-16 01:45:00,35.5,35.0,30.00,NNW,348,3.0,12.0,98,0.00,,---,0.00,VWS V14.01,2013-01-16 07:45:00,
2013-01-16 01:46:00,35.5,35.0,30.00,NNE,20,4.0,10.0,98,0.00,,---,0.00,VWS V14.01,2013-01-16 07:46:00,
2013-01-16 01:51:00,35.5,35.0,30.00,NNE,22,4.0,11.0,98,0.00,,---,0.00,VWS V14.01,2013-01-16 07:51:00,
2013-01-16 01:56:00,35.5,35.0,30.00,NNE,22,3.0,11.0,98,0.00,,---,0.00,VWS V14.01,2013-01-16 07:56:00,
2013-01-16 02:00:00,35.5,35.0,30.00,North,10,3.0,11.0,98,0.00,,---,0.00,VWS V14.01,2013-01-16 08:00:00,
2013-01-16 02:01:00,35.5,35.0,30.00,NNE,13,3.0,6.0,98,0.00,,---,0.00,VWS V14.01,2013-01-16 08:01:00,
2013-01-16 02:06:00,35.5,35.0,30.00,NNE,32,10.0,10.0,98,0.00,,---,0.00,VWS V14.01,2013-01-16 08:06:00,
2013-01-16 02:11:00,35.5,35.0,30.00,NNE,13,12.0,12.0,98,0.00,,---,0.00,VWS V14.01,2013-01-16 08:11:00,
2013-01-16 02:15:00,35.5,35.0,29.99,NNE,15,5.0,13.0,98,0.00,,---,0.00,VWS V14.01,2013-01-16 08:15:00,
2013-01-16 02:16:00,35.5,35.0,29.99,North,350,7.0,10.0,98,0.00,,---,0.00,VWS V14.01,2013-01-16 08:16:00,
2013-01-16 02:22:00,35.5,35.0,29.99,NNE,15,8.0,12.0,98,0.00,,---,0.00,VWS V14.01,2013-01-16 08:22:00,
2013-01-16 02:27:00,35.5,35.0,29.99,NE,38,12.0,12.0,98,0.00,,---,0.00,VWS V14.01,2013-01-16 08:27:00,
2013-01-16 02:30:00,35.5,35.0,29.99,NNE,19,11.0,12.0,98,0.00,,---,0.00,VWS V14.01,2013-01-16 08:30:00,
2013-01-16 02:32:00,35.5,35.0,29.99,North,5,3.0,12.0,98,0.00,,---,0.00,VWS V14.01,2013-01-16 08:32:00,
2013-01-16 02:37:00,35.5,35.0,29.99,NNE,14,9.0,12.0,98,0.00,,---,0.00,VWS V14.01,2013-01-16 08:37:00,
2013-01-16 02:42:00,35.5,34.7,29.99,NE,34,11.0,13.0,97,0.00,,---,0.00,VWS V14.01,2013-01-16 08:42:00,
2013-01-16 02:45:00,35.5,34.7,29.98,NNE,24,3.0,13.0,97,0.00,,---,0.00,VWS V14.01,2013-01-16 08:45:00,
2013-01-16 02:47:00,35.5,34.7,29.98,North,5,4.0,12.0,97,0.00,,---,0.00,VWS V14.01,2013-01-16 08:47:00,
2013-01-16 02:52:00,35.5,34.7,29.98,NE,44,4.0,13.0,97,0.00,,---,0.00,VWS V14.01,2013-01-16 08:52:00,
2013-01-16 02:57:00,35.5,34.7,29.98,North,360,10.0,13.0,97,0.00,,---,0.00,VWS V14.01,2013-01-16 08:57:00,
2013-01-16 03:00:00,35.5,34.7,29.98,NNE,20,8.0,13.0,97,0.00,,---,0.00,VWS V14.01,2013-01-16 09:00:00,
2013-01-16 03:02:00,35.5,34.7,29.98,NNW,343,4.0,12.0,97,0.00,,---,0.00,VWS V14.01,2013-01-16 09:02:00,
2013-01-16 03:07:00,35.5,34.7,29.98,North,360,7.0,12.0,97,0.00,,---,0.00,VWS V14.01,2013-01-16 09:07:00,
2013-01-16 03:12:00,35.5,34.7,29.98,NNE,31,9.0,15.0,97,0.00,,---,0.00,VWS V14.01,2013-01-16 09:12:00,
2013-01-16 03:15:00,35.5,34.7,29.97,North,360,6.0,15.0,97,0.00,,---,0.00,VWS V14.01,2013-01-16 09:15:00,
2013-01-16 03:17:00,35.5,34.7,29.97,North,5,4.0,15.0,97,0.00,,---,0.00,VWS V14.01,2013-01-16 09:17:00,
2013-01-16 03:22:00,35.5,34.7,29.97,NNE,22,8.0,15.0,97,0.00,,---,0.00,VWS V14.01,2013-01-16 09:22:00,
2013-01-16 03:27:00,35.5,34.7,29.97,NNE,22,4.0,15.0,97,0.00,,---,0.00,VWS V14.01,2013-01-16 09:27:00,
2013-01-16 03:30:00,35.6,34.8,29.99,NNW,343,3.0,15.0,97,0.00,,---,0.00,VWS V14.01,2013-01-16 09:30:00,
2013-01-16 03:33:00,35.6,34.8,29.99,NW,315,2.0,6.0,97,0.00,,---,0.00,VWS V14.01,2013-01-16 09:33:00,
2013-01-16 03:38:00,35.8,35.0,29.99,NNW,342,3.0,6.0,97,0.00,,---,0.00,VWS V14.01,2013-01-16 09:38:00,
2013-01-16 03:43:00,35.6,34.6,29.99,NE,36,5.0,11.0,96,0.00,,---,0.00,VWS V14.01,2013-01-16 09:43:00,
2013-01-16 03:45:00,35.6,34.6,30.00,North,355,6.0,11.0,96,0.00,,---,0.00,VWS V14.01,2013-01-16 09:45:00,
2013-01-16 03:48:00,35.6,34.6,30.00,North,10,5.0,11.0,96,0.00,,---,0.00,VWS V14.01,2013-01-16 09:48:00,
2013-01-16 03:53:00,35.6,34.6,30.00,NNE,20,5.0,11.0,96,0.00,,---,0.00,VWS V14.01,2013-01-16 09:53:00,
2013-01-16 03:58:00,35.6,34.6,29.99,NNE,32,10.0,11.0,96,0.00,,---,0.00,VWS V14.01,2013-01-16 09:58:00,
2013-01-16 04:00:00,35.8,34.8,29.99,NNE,17,9.0,12.0,96,0.00,,---,0.00,VWS V14.01,2013-01-16 10:00:00,
2013-01-16 04:03:00,35.8,34.8,29.99,North,9,4.0,12.0,96,0.00,,---,0.00,VWS V14.01,2013-01-16 10:03:00,
2013-01-16 04:09:00,35.6,34.6,29.99,North,349,6.0,12.0,96,0.00,,---,0.00,VWS V14.01,2013-01-16 10:09:00,
2013-01-16 04:14:00,35.6,34.6,29.99,NNE,18,5.0,12.0,96,0.00,,---,0.00,VWS V14.01,2013-01-16 10:14:00,
2013-01-16 04:15:00,35.6,34.6,29.99,North,360,3.0,12.0,96,0.00,,---,0.00,VWS V14.01,2013-01-16 10:15:00,
2013-01-16 04:19:00,35.6,34.6,29.99,NNW,337,5.0,8.0,96,0.00,,---,0.00,VWS V14.01,2013-01-16 10:19:00,
2013-01-16 04:24:00,35.6,34.6,29.99,NNW,345,7.0,10.0,96,0.00,,---,0.00,VWS V14.01,2013-01-16 10:24:00,
2013-01-16 04:29:00,35.8,34.8,30.01,North,355,5.0,10.0,96,0.00,,---,0.00,VWS V14.01,2013-01-16 10:29:00,
2013-01-16 04:30:00,35.8,34.8,30.01,NNE,19,9.0,10.0,96,0.00,,---,0.00,VWS V14.01,2013-01-16 10:30:00,
2013-01-16 04:34:00,35.8,34.8,30.01,NNW,336,5.0,9.0,96,0.00,,---,0.00,VWS V14.01,2013-01-16 10:34:00,
2013-01-16 04:39:00,35.6,34.3,30.01,NNW,336,4.0,12.0,95,0.00,,---,0.00,VWS V14.01,2013-01-16 10:39:00,
2013-01-16 04:44:00,35.6,34.3,30.01,North,355,5.0,12.0,95,0.00,,---,0.00,VWS V14.01,2013-01-16 10:44:00,
2013-01-16 04:45:00,35.6,34.3,30.01,North,360,4.0,12.0,95,0.00,,---,0.00,VWS V14.01,2013-01-16 10:45:00,
2013-01-16 04:49:00,35.6,34.3,30.01,NNE,17,12.0,14.0,95,0.00,,---,0.00,VWS V14.01,2013-01-16 10:49:00,
2013-01-16 04:54:00,35.5,34.2,30.01,NNW,347,6.0,15.0,95,0.00,,---,0.00,VWS V14.01,2013-01-16 10:54:00,
2013-01-16 04:59:00,35.5,34.2,30.01,North,5,13.0,15.0,95,0.00,,---,0.00,VWS V14.01,2013-01-16 10:59:00,
2013-01-16 05:00:00,35.5,34.2,30.01,North,5,13.0,15.0,95,0.00,,---,0.00,VWS V14.01,2013-01-16 11:00:00,
2013-01-16 05:04:00,35.3,34.0,30.01,NNE,24,6.0,13.0,95,0.00,,---,0.00,VWS V14.01,2013-01-16 11:04:00,
2013-01-16 05:09:00,35.3,33.8,30.01,NE,46,10.0,13.0,94,0.00,,---,0.00,VWS V14.01,2013-01-16 11:09:00,
2013-01-16 05:14:00,35.3,33.8,30.00,North,11,10.0,13.0,94,0.00,,---,0.00,VWS V14.01,2013-01-16 11:14:00,
2013-01-16 05:15:00,35.3,33.8,30.00,NNE,22,13.0,13.0,94,0.00,,---,0.00,VWS V14.01,2013-01-16 11:15:00,
2013-01-16 05:19:00,35.3,34.0,30.00,NE,44,10.0,13.0,95,0.00,,---,0.00,VWS V14.01,2013-01-16 11:19:00,
2013-01-16 05:25:00,35.3,32.9,30.00,NNE,15,6.0,13.0,91,0.00,,---,0.00,VWS V14.01,2013-01-16 11:25:00,
2013-01-16 05:30:00,35.3,34.0,30.01,North,360,8.0,11.0,95,0.00,,---,0.00,VWS V14.01,2013-01-16 11:30:00,
2013-01-16 05:35:00,35.3,34.0,30.01,NNW,327,5.0,11.0,95,0.00,,---,0.00,VWS V14.01,2013-01-16 11:35:00,
2013-01-16 05:40:00,35.3,34.0,30.01,North,360,2.0,11.0,95,0.00,,---,0.00,VWS V14.01,2013-01-16 11:40:00,
2013-01-16 05:45:00,35.5,34.2,30.02,North,355,3.0,3.0,95,0.00,,---,0.00,VWS V14.01,2013-01-16 11:45:00,
2013-01-16 05:50:00,35.5,34.2,30.02,North,11,4.0,5.0,95,0.00,,---,0.00,VWS V14.01,2013-01-16 11:50:00,
2013-01-16 05:55:00,35.6,34.3,30.02,North,355,7.0,7.0,95,0.00,,---,0.00,VWS V14.01,2013-01-16 11:55:00,
2013-01-16 06:00:00,35.5,34.2,30.02,NNW,345,7.0,9.0,95,0.00,,---,0.00,VWS V14.01,2013-01-16 12:00:00,
2013-01-16 06:05:00,35.3,34.0,30.02,NNE,22,4.0,13.0,95,0.00,,---,0.00,VWS V14.01,2013-01-16 12:05:00,
2013-01-16 06:10:00,35.2,33.9,30.02,NNE,17,5.0,13.0,95,0.00,,---,0.00,VWS V14.01,2013-01-16 12:10:00,
2013-01-16 06:15:00,35.2,33.9,30.02,NNW,345,5.0,5.0,95,0.00,,---,0.00,VWS V14.01,2013-01-16 12:15:00,
2013-01-16 06:20:00,35.2,33.9,30.02,NW,321,8.0,11.0,95,0.00,,---,0.00,VWS V14.01,2013-01-16 12:20:00,
2013-01-16 06:25:00,35.2,33.9,30.02,North,350,5.0,11.0,95,0.00,,---,0.00,VWS V14.01,2013-01-16 12:25:00,
2013-01-16 06:30:00,35.2,33.9,30.03,North,360,4.0,11.0,95,0.01,,---,0.01,VWS V14.01,2013-01-16 12:30:00,
2013-01-16 06:31:00,35.2,33.9,30.03,NNE,17,5.0,5.0,95,0.01,,---,0.01,VWS V14.01,2013-01-16 12:31:00,
2013-01-16 06:36:00,35.2,33.9,30.03,North,360,3.0,9.0,95,0.01,,---,0.01,VWS V14.01,2013-01-16 12:36:00,
2013-01-16 06:41:00,35.2,33.9,30.03,NNW,344,4.0,9.0,95,0.01,,---,0.01,VWS V14.01,2013-01-16 12:41:00,
2013-01-16 06:45:00,35.2,33.9,30.04,NNW,348,5.0,9.0,95,0.01,,---,0.01,VWS V14.01,2013-01-16 12:45:00,
2013-01-16 06:46:00,35.2,33.9,30.04,North,11,2.0,5.0,95,0.01,,---,0.01,VWS V14.01,2013-01-16 12:46:00,
2013-01-16 06:51:00,35.2,33.9,30.04,NNE,23,4.0,11.0,95,0.01,,---,0.01,VWS V14.01,2013-01-16 12:51:00,
2013-01-16 06:56:00,35.2,33.9,30.04,North,355,5.0,11.0,95,0.01,,---,0.01,VWS V14.01,2013-01-16 12:56:00,
2013-01-16 07:00:00,35.2,33.9,30.05,NNE,15,12.0,12.0,95,0.01,,---,0.01,VWS V14.01,2013-01-16 13:00:00,
2013-01-16 07:01:00,35.0,33.7,30.05,North,360,6.0,12.0,95,0.01,,---,0.01,VWS V14.01,2013-01-16 13:01:00,
2013-01-16 07:06:00,35.0,33.7,30.05,NNE,26,8.0,13.0,95,0.01,,---,0.01,VWS V14.01,2013-01-16 13:06:00,
2013-01-16 07:11:00,35.0,34.0,30.05,NNW,345,8.0,13.0,96,0.01,,---,0.01,VWS V14.01,2013-01-16 13:11:00,
2013-01-16 07:15:00,35.2,34.2,30.05,NNE,19,4.0,13.0,96,0.01,,---,0.01,VWS V14.01,2013-01-16 13:15:00,
2013-01-16 07:17:00,35.2,34.2,30.05,NNW,337,2.0,6.0,96,0.01,,---,0.01,VWS V14.01,2013-01-16 13:17:00,
2013-01-16 07:22:00,35.2,34.2,30.05,NNW,338,5.0,9.0,96,0.01,,---,0.01,VWS V14.01,2013-01-16 13:22:00,
2013-01-16 07:27:00,35.0,34.0,30.05,NNW,344,8.0,12.0,96,0.01,,---,0.01,VWS V14.01,2013-01-16 13:27:00,
2013-01-16 07:30:00,35.0,34.0,30.08,NNW,328,4.0,12.0,96,0.01,,---,0.01,VWS V14.01,2013-01-16 13:30:00,
2013-01-16 07:32:00,35.0,34.0,30.08,North,355,1.0,6.0,96,0.00,,---,0.01,VWS V14.01,2013-01-16 13:32:00,
2013-01-16 07:37:00,35.2,34.2,30.08,NNW,347,3.0,7.0,96,0.00,,---,0.01,VWS V14.01,2013-01-16 13:37:00,
2013-01-16 07:42:00,35.2,34.2,30.08,North,349,2.0,7.0,96,0.00,,---,0.01,VWS V14.01,2013-01-16 13:42:00,
2013-01-16 07:45:00,35.2,34.2,30.07,NNW,348,5.0,9.0,96,0.00,,---,0.01,VWS V14.01,2013-01-16 13:45:00,
2013-01-16 07:47:00,35.2,34.2,30.07,North,355,7.0,7.0,96,0.00,,---,0.01,VWS V14.01,2013-01-16 13:47:00,
2013-01-16 07:52:00,35.2,33.9,30.07,NNE,16,4.0,13.0,95,0.01,,---,0.02,VWS V14.01,2013-01-16 13:52:00,
2013-01-16 07:57:00,35.0,33.7,30.07,NE,36,5.0,13.0,95,0.01,,---,0.02,VWS V14.01,2013-01-16 13:57:00,
2013-01-16 08:00:00,35.2,34.2,30.06,NNE,26,4.0,13.0,96,0.01,,---,0.02,VWS V14.01,2013-01-16 14:00:00,
2013-01-16 08:02:00,35.2,34.2,30.06,NNE,16,2.0,6.0,96,0.01,,---,0.02,VWS V14.01,2013-01-16 14:02:00,
2013-01-16 08:07:00,35.2,34.2,30.06,North,355,4.0,6.0,96,0.01,,---,0.02,VWS V14.01,2013-01-16 14:07:00,
2013-01-16 08:13:00,35.2,33.9,30.06,North,11,5.0,10.0,95,0.01,,---,0.02,VWS V14.01,2013-01-16 14:13:00,
2013-01-16 08:15:00,35.2,33.9,30.07,NE,37,4.0,10.0,95,0.01,,---,0.02,VWS V14.01,2013-01-16 14:15:00,
2013-01-16 08:18:00,35.2,34.2,30.07,NNW,347,1.0,5.0,96,0.01,,---,0.02,VWS V14.01,2013-01-16 14:18:00,
2013-01-16 08:23:00,35.3,34.3,30.07,NNW,340,5.0,7.0,96,0.01,,---,0.02,VWS V14.01,2013-01-16 14:23:00,
2013-01-16 08:28:00,35.2,34.2,30.07,NNW,348,6.0,8.0,96,0.01,,---,0.02,VWS V14.01,2013-01-16 14:28:00,
2013-01-16 08:30:00,35.2,33.9,30.09,North,9,5.0,9.0,95,0.01,,---,0.02,VWS V14.01,2013-01-16 14:30:00,
2013-01-16 08:33:00,35.2,34.2,30.09,North,5,2.0,5.0,96,0.02,,---,0.03,VWS V14.01,2013-01-16 14:33:00,
2013-01-16 08:38:00,35.2,33.9,30.09,NNW,346,7.0,7.0,95,0.02,,---,0.03,VWS V14.01,2013-01-16 14:38:00,
2013-01-16 08:43:00,35.3,34.3,30.09,NNW,331,4.0,9.0,96,0.02,,---,0.03,VWS V14.01,2013-01-16 14:43:00,
2013-01-16 08:45:00,35.3,34.3,30.10,NNW,344,5.0,9.0,96,0.03,,---,0.04,VWS V14.01,2013-01-16 14:45:00,
2013-01-16 08:48:00,35.3,34.3,30.10,NNW,346,4.0,6.0,96,0.03,,---,0.04,VWS V14.01,2013-01-16 14:48:00,
2013-01-16 08:53:00,35.3,34.3,30.10,North,355,5.0,7.0,96,0.03,,---,0.04,VWS V14.01,2013-01-16 14:53:00,
2013-01-16 08:59:00,35.3,34.3,30.10,North,355,5.0,7.0,96,0.03,,---,0.04,VWS V14.01,2013-01-16 14:59:00,
2013-01-16 09:00:00,35.3,34.3,30.10,NNW,348,5.0,7.0,96,0.03,,---,0.04,VWS V14.01,2013-01-16 15:00:00,
2013-01-16 09:04:00,35.3,34.3,30.10,NNW,348,6.0,9.0,96,0.02,,---,0.04,VWS V14.01,2013-01-16 15:04:00,
2013-01-16 09:09:00,35.3,34.3,30.10,NNW,345,6.0,12.0,96,0.02,,---,0.04,VWS V14.01,2013-01-16 15:09:00,
2013-01-16 09:14:00,35.3,34.3,30.09,North,355,7.0,12.0,96,0.02,,---,0.04,VWS V14.01,2013-01-16 15:14:00,
2013-01-16 09:15:00,35.5,34.5,30.09,NNW,348,3.0,12.0,96,0.02,,---,0.04,VWS V14.01,2013-01-16 15:15:00,
2013-01-16 09:19:00,35.5,34.5,30.09,North,5,9.0,12.0,96,0.02,,---,0.04,VWS V14.01,2013-01-16 15:19:00,
2013-01-16 09:24:00,35.5,34.5,30.09,North,355,4.0,12.0,96,0.02,,---,0.04,VWS V14.01,2013-01-16 15:24:00,
2013-01-16 09:29:00,35.6,34.6,30.10,North,5,4.0,12.0,96,0.02,,---,0.04,VWS V14.01,2013-01-16 15:29:00,
2013-01-16 09:30:00,35.6,34.6,30.10,North,5,4.0,12.0,96,0.02,,---,0.04,VWS V14.01,2013-01-16 15:30:00,
2013-01-16 09:34:00,35.8,34.8,30.10,NNW,348,4.0,12.0,96,0.02,,---,0.04,VWS V14.01,2013-01-16 15:34:00,
2013-01-16 09:39:00,35.6,34.6,30.10,NNE,25,11.0,12.0,96,0.02,,---,0.04,VWS V14.01,2013-01-16 15:39:00,
2013-01-16 09:44:00,35.8,34.8,30.10,NE,39,6.0,6.0,96,0.00,,---,0.04,VWS V14.01,2013-01-16 15:44:00,
2013-01-16 09:45:00,35.8,34.8,30.10,NE,51,6.0,14.0,96,0.02,,---,0.04,VWS V14.01,2013-01-16 15:45:00,
2013-01-16 09:49:00,35.8,34.8,30.10,North,355,10.0,12.0,96,0.00,,---,0.04,VWS V14.01,2013-01-16 15:49:00,
2013-01-16 09:55:00,35.8,34.8,30.10,NNE,15,6.0,12.0,96,0.00,,---,0.04,VWS V14.01,2013-01-16 15:55:00,
2013-01-16 10:00:00,35.8,34.5,30.10,NNE,30,10.0,10.0,95,0.00,,---,0.04,VWS V14.01,2013-01-16 16:00:00,
2013-01-16 10:05:00,35.9,34.9,30.10,NNE,27,2.0,10.0,96,0.00,,---,0.04,VWS V14.01,2013-01-16 16:05:00,
2013-01-16 10:10:00,35.6,34.3,30.10,North,360,6.0,14.0,95,0.00,,---,0.04,VWS V14.01,2013-01-16 16:10:00,
2013-01-16 10:15:00,35.8,34.5,30.10,NNE,31,3.0,4.0,95,0.00,,---,0.04,VWS V14.01,2013-01-16 16:15:00,
2013-01-16 10:20:00,35.8,34.5,30.10,NNE,17,2.0,12.0,95,0.00,,---,0.04,VWS V14.01,2013-01-16 16:20:00,
2013-01-16 10:25:00,35.9,34.6,30.10,North,355,4.0,12.0,95,0.00,,---,0.04,VWS V14.01,2013-01-16 16:25:00,
2013-01-16 10:30:00,35.9,34.6,30.10,NNW,347,3.0,5.0,95,0.00,,---,0.04,VWS V14.01,2013-01-16 16:30:00,
2013-01-16 10:35:00,36.0,34.7,30.10,North,355,5.0,6.0,95,0.00,,---,0.04,VWS V14.01,2013-01-16 16:35:00,
2013-01-16 10:40:00,36.0,34.7,30.10,NNW,345,3.0,8.0,95,0.00,,---,0.04,VWS V14.01,2013-01-16 16:40:00,
2013-01-16 10:45:00,36.0,34.7,30.09,NNW,329,5.0,9.0,95,0.01,,---,0.05,VWS V14.01,2013-01-16 16:45:00,
2013-01-16 10:46:00,36.0,34.7,30.09,NNW,346,6.0,6.0,95,0.01,,---,0.05,VWS V14.01,2013-01-16 16:46:00,
2013-01-16 10:51:00,36.0,34.7,30.09,North,5,4.0,6.0,95,0.01,,---,0.05,VWS V14.01,2013-01-16 16:51:00,
2013-01-16 10:56:00,35.9,34.6,30.09,NNE,24,5.0,10.0,95,0.01,,---,0.05,VWS V14.01,2013-01-16 16:56:00,
2013-01-16 11:00:00,36.0,34.7,30.09,NNE,13,6.0,10.0,95,0.01,,---,0.05,VWS V14.01,2013-01-16 17:00:00,
2013-01-16 11:01:00,36.0,34.7,30.09,NNW,341,7.0,8.0,95,0.01,,---,0.05,VWS V14.01,2013-01-16 17:01:00,
2013-01-16 11:06:00,36.0,34.7,30.09,NNW,346,5.0,8.0,95,0.02,,---,0.06,VWS V14.01,2013-01-16 17:06:00,
2013-01-16 11:11:00,36.0,34.7,30.09,NNW,348,5.0,8.0,95,0.02,,---,0.06,VWS V14.01,2013-01-16 17:11:00,
2013-01-16 11:15:00,36.0,34.7,30.08,NNW,338,2.0,8.0,95,0.02,,---,0.06,VWS V14.01,2013-01-16 17:15:00,
2013-01-16 11:16:00,36.0,34.7,30.08,NNW,348,4.0,8.0,95,0.02,,---,0.06,VWS V14.01,2013-01-16 17:16:00,
2013-01-16 11:21:00,36.2,35.2,30.08,North,349,4.0,9.0,96,0.02,,---,0.06,VWS V14.01,2013-01-16 17:21:00,
2013-01-16 11:26:00,36.0,34.7,30.08,North,355,5.0,9.0,95,0.02,,---,0.06,VWS V14.01,2013-01-16 17:26:00,
2013-01-16 11:30:00,36.0,35.0,30.07,NNW,342,4.0,11.0,96,0.02,,---,0.06,VWS V14.01,2013-01-16 17:30:00,
2013-01-16 11:31:00,36.0,35.0,30.07,NNW,346,4.0,10.0,96,0.02,,---,0.06,VWS V14.01,2013-01-16 17:31:00,
2013-01-16 11:36:00,36.2,35.2,30.07,North,355,7.0,11.0,96,0.03,,---,0.07,VWS V14.01,2013-01-16 17:36:00,
2013-01-16 11:42:00,36.2,35.2,30.07,NNW,348,4.0,11.0,96,0.03,,---,0.07,VWS V14.01,2013-01-16 17:42:00,
2013-01-16 11:45:00,36.3,35.3,30.07,NNW,338,4.0,11.0,96,0.03,,---,0.07,VWS V14.01,2013-01-16 17:45:00,
2013-01-16 11:47:00,36.3,35.3,30.07,North,5,8.0,11.0,96,0.02,,---,0.07,VWS V14.01,2013-01-16 17:47:00,
2013-01-16 11:52:00,36.2,35.2,30.07,North,360,2.0,11.0,96,0.02,,---,0.07,VWS V14.01,2013-01-16 17:52:00,
2013-01-16 11:57:00,36.3,35.3,30.07,North,5,3.0,11.0,96,0.02,,---,0.07,VWS V14.01,2013-01-16 17:57:00,
2013-01-16 12:00:00,36.3,35.3,30.07,NNW,340,4.0,11.0,96,0.02,,---,0.07,VWS V14.01,2013-01-16 18:00:00,
2013-01-16 12:02:00,36.2,35.2,30.07,NNW,344,3.0,5.0,96,0.02,,---,0.07,VWS V14.01,2013-01-16 18:02:00,
2013-01-16 12:07:00,36.0,35.0,30.07,NNW,344,6.0,9.0,96,0.02,,---,0.07,VWS V14.01,2013-01-16 18:07:00,
2013-01-16 12:12:00,36.0,35.0,30.07,NE,37,5.0,9.0,96,0.02,,---,0.07,VWS V14.01,2013-01-16 18:12:00,
2013-01-16 12:15:00,36.0,35.0,30.07,North,355,2.0,9.0,96,0.02,,---,0.07,VWS V14.01,2013-01-16 18:15:00,
2013-01-16 12:17:00,36.2,35.2,30.07,NNW,343,4.0,9.0,96,0.01,,---,0.07,VWS V14.01,2013-01-16 18:17:00,
2013-01-16 12:22:00,36.2,35.2,30.07,NNW,341,5.0,9.0,96,0.02,,---,0.08,VWS V14.01,2013-01-16 18:22:00,
2013-01-16 12:28:00,36.2,35.2,30.07,North,355,4.0,9.0,96,0.02,,---,0.08,VWS V14.01,2013-01-16 18:28:00,
2013-01-16 12:30:00,36.3,35.3,30.05,NNW,346,3.0,9.0,96,0.02,,---,0.08,VWS V14.01,2013-01-16 18:30:00,
2013-01-16 12:33:00,36.3,35.3,30.05,North,350,1.0,5.0,96,0.02,,---,0.08,VWS V14.01,2013-01-16 18:33:00,
2013-01-16 12:38:00,36.3,35.3,30.05,NNW,331,0.0,5.0,96,0.02,,---,0.08,VWS V14.01,2013-01-16 18:38:00,
2013-01-16 12:43:00,36.5,35.5,30.05,North,355,2.0,5.0,96,0.02,,---,0.08,VWS V14.01,2013-01-16 18:43:00,
2013-01-16 12:45:00,36.5,35.5,30.05,NNE,12,5.0,7.0,96,0.02,,---,0.08,VWS V14.01,2013-01-16 18:45:00,
2013-01-16 12:48:00,36.6,35.6,30.05,North,360,1.0,5.0,96,0.01,,---,0.08,VWS V14.01,2013-01-16 18:48:00,
2013-01-16 12:53:00,36.6,35.6,30.05,NW,325,5.0,7.0,96,0.01,,---,0.08,VWS V14.01,2013-01-16 18:53:00,
2013-01-16 12:58:00,36.3,35.3,30.05,NNW,340,5.0,8.0,96,0.01,,---,0.08,VWS V14.01,2013-01-16 18:58:00,
2013-01-16 13:00:00,36.3,35.3,30.05,NNW,342,4.0,8.0,96,0.01,,---,0.08,VWS V14.01,2013-01-16 19:00:00,
2013-01-16 13:03:00,36.5,35.5,30.05,NNW,334,5.0,7.0,96,0.01,,---,0.08,VWS V14.01,2013-01-16 19:03:00,
2013-01-16 13:08:00,36.5,35.5,30.05,NNW,336,5.0,7.0,96,0.01,,---,0.08,VWS V14.01,2013-01-16 19:08:00,
2013-01-16 13:13:00,36.3,35.3,30.05,NNW,329,6.0,10.0,96,0.01,,---,0.08,VWS V14.01,2013-01-16 19:13:00,
2013-01-16 13:15:00,36.3,35.3,30.05,NNW,327,6.0,10.0,96,0.01,,---,0.08,VWS V14.01,2013-01-16 19:15:00,
2013-01-16 13:18:00,36.3,35.3,30.05,NW,313,6.0,9.0,96,0.01,,---,0.08,VWS V14.01,2013-01-16 19:18:00,
2013-01-16 13:23:00,36.3,35.3,30.05,NNW,327,5.0,11.0,96,0.01,,---,0.08,VWS V14.01,2013-01-16 19:23:00,
2013-01-16 13:29:00,36.2,35.2,30.05,NNW,331,7.0,11.0,96,0.01,,---,0.08,VWS V14.01,2013-01-16 19:29:00,
2013-01-16 13:30:00,36.2,35.2,30.05,NW,316,7.0,11.0,96,0.01,,---,0.08,VWS V14.01,2013-01-16 19:30:00,
2013-01-16 13:34:00,36.2,35.2,30.05,NW,318,6.0,7.0,96,0.00,,---,0.08,VWS V14.01,2013-01-16 19:34:00,
2013-01-16 13:39:00,36.2,35.2,30.05,NNW,338,6.0,9.0,96,0.00,,---,0.08,VWS V14.01,2013-01-16 19:39:00,
2013-01-16 13:44:00,36.3,35.3,30.04,NNW,339,3.0,9.0,96,0.00,,---,0.08,VWS V14.01,2013-01-16 19:44:00,
2013-01-16 13:45:00,36.3,35.3,30.04,NNW,344,5.0,9.0,96,0.00,,---,0.08,VWS V14.01,2013-01-16 19:45:00,
2013-01-16 13:49:00,36.2,35.2,30.04,NNW,329,3.0,10.0,96,0.00,,---,0.08,VWS V14.01,2013-01-16 19:49:00,
2013-01-16 13:54:00,36.2,35.2,30.04,NNW,333,5.0,10.0,96,0.00,,---,0.08,VWS V14.01,2013-01-16 19:54:00,
2013-01-16 13:59:00,36.2,35.2,30.04,NW,321,5.0,10.0,96,0.00,,---,0.08,VWS V14.01,2013-01-16 19:59:00,
2013-01-16 14:00:00,36.2,35.2,30.04,NW,321,5.0,10.0,96,0.00,,---,0.08,VWS V14.01,2013-01-16 20:00:00,
2013-01-16 14:04:00,36.0,35.0,30.04,NNW,346,4.0,9.0,96,0.00,,---,0.08,VWS V14.01,2013-01-16 20:04:00,
2013-01-16 14:09:00,36.0,35.0,30.04,NW,318,8.0,14.0,96,0.00,,---,0.08,VWS V14.01,2013-01-16 20:09:00,
2013-01-16 14:14:00,35.9,34.9,30.04,NW,320,5.0,6.0,96,0.00,,---,0.08,VWS V14.01,2013-01-16 20:14:00,
2013-01-16 14:15:00,35.9,34.9,30.04,WNW,301,2.0,14.0,96,0.00,,---,0.08,VWS V14.01,2013-01-16 20:15:00,
2013-01-16 14:20:00,35.8,34.8,30.04,NNW,337,5.0,9.0,96,0.00,,---,0.08,VWS V14.01,2013-01-16 20:20:00,
2013-01-16 14:25:00,35.8,34.8,30.04,NNW,346,5.0,9.0,96,0.00,,---,0.08,VWS V14.01,2013-01-16 20:25:00,
2013-01-16 14:30:00,35.9,34.9,30.04,NNW,336,4.0,6.0,96,0.00,,---,0.08,VWS V14.01,2013-01-16 20:30:00,
2013-01-16 14:35:00,35.8,34.8,30.04,North,351,3.0,11.0,96,0.00,,---,0.08,VWS V14.01,2013-01-16 20:35:00,
2013-01-16 14:40:00,35.8,34.8,30.04,North,349,10.0,11.0,96,0.00,,---,0.08,VWS V14.01,2013-01-16 20:40:00,
2013-01-16 14:45:00,35.8,34.8,30.02,NNW,342,10.0,10.0,96,0.00,,---,0.08,VWS V14.01,2013-01-16 20:45:00,
2013-01-16 14:50:00,35.8,34.8,30.02,North,349,4.0,10.0,96,0.00,,---,0.08,VWS V14.01,2013-01-16 20:50:00,
2013-01-16 14:55:00,35.8,34.8,30.02,North,11,11.0,11.0,96,0.00,,---,0.08,VWS V14.01,2013-01-16 20:55:00,
2013-01-16 15:00:00,35.8,34.8,30.03,NW,326,9.0,9.0,96,0.00,,---,0.08,VWS V14.01,2013-01-16 21:00:00,
2013-01-16 15:06:00,35.8,34.8,30.03,NNW,343,10.0,13.0,96,0.00,,---,0.08,VWS V14.01,2013-01-16 21:06:00,
2013-01-16 15:11:00,35.8,34.8,30.03,NNW,341,9.0,13.0,96,0.00,,---,0.08,VWS V14.01,2013-01-16 21:11:00,
2013-01-16 15:15:00,35.8,34.8,30.04,NNW,327,8.0,13.0,96,0.00,,---,0.08,VWS V14.01,2013-01-16 21:15:00,
2013-01-16 15:16:00,35.8,34.8,30.04,North,5,5.0,9.0,96,0.00,,---,0.08,VWS V14.01,2013-01-16 21:16:00,
2013-01-16 15:21:00,35.9,34.9,30.04,NNW,346,5.0,12.0,96,0.00,,---,0.08,VWS V14.01,2013-01-16 21:21:00,
2013-01-16 15:26:00,35.9,34.9,30.04,NNW,346,6.0,12.0,96,0.00,,---,0.08,VWS V14.01,2013-01-16 21:26:00,
2013-01-16 15:30:00,36.0,35.0,30.05,NNW,333,4.0,12.0,96,0.00,,---,0.08,VWS V14.01,2013-01-16 21:30:00,
2013-01-16 15:31:00,36.0,35.0,30.05,NW,320,3.0,5.0,96,0.00,,---,0.08,VWS V14.01,2013-01-16 21:31:00,
2013-01-16 15:36:00,36.0,35.0,30.05,North,355,5.0,7.0,96,0.00,,---,0.08,VWS V14.01,2013-01-16 21:36:00,
2013-01-16 15:41:00,36.0,35.0,30.05,North,355,5.0,10.0,96,0.00,,---,0.08,VWS V14.01,2013-01-16 21:41:00,
2013-01-16 15:45:00,36.0,35.0,30.05,North,350,5.0,12.0,96,0.00,,---,0.08,VWS V14.01,2013-01-16 21:45:00,
2013-01-16 15:46:00,36.0,35.0,30.05,North,349,9.0,9.0,96,0.00,,---,0.08,VWS V14.01,2013-01-16 21:46:00,
2013-01-16 15:52:00,36.0,35.0,30.05,NW,326,5.0,10.0,96,0.00,,---,0.08,VWS V14.01,2013-01-16 21:52:00,
2013-01-16 15:57:00,36.0,35.0,30.05,NW,325,3.0,10.0,96,0.00,,---,0.08,VWS V14.01,2013-01-16 21:57:00,
2013-01-16 16:00:00,36.0,35.0,30.06,North,355,11.0,11.0,96,0.00,,---,0.08,VWS V14.01,2013-01-16 22:00:00,
2013-01-16 16:02:00,36.2,35.2,30.06,North,351,4.0,11.0,96,0.00,,---,0.08,VWS V14.01,2013-01-16 22:02:00,
2013-01-16 16:07:00,36.2,35.2,30.06,NNE,12,3.0,11.0,96,0.00,,---,0.08,VWS V14.01,2013-01-16 22:07:00,
2013-01-16 16:12:00,36.2,35.2,30.06,NNW,344,5.0,11.0,96,0.00,,---,0.08,VWS V14.01,2013-01-16 22:12:00,
2013-01-16 16:15:00,36.2,35.2,30.05,NNW,348,5.0,11.0,96,0.00,,---,0.08,VWS V14.01,2013-01-16 22:15:00,
2013-01-16 16:17:00,36.2,35.2,30.05,NNW,334,4.0,10.0,96,0.00,,---,0.08,VWS V14.01,2013-01-16 22:17:00,
2013-01-16 16:22:00,36.2,35.2,30.05,NNW,336,6.0,10.0,96,0.00,,---,0.08,VWS V14.01,2013-01-16 22:22:00,
2013-01-16 16:27:00,36.2,35.2,30.05,NNW,336,2.0,10.0,96,0.00,,---,0.08,VWS V14.01,2013-01-16 22:27:00,
2013-01-16 16:30:00,36.2,35.2,30.05,NNW,336,6.0,10.0,96,0.00,,---,0.08,VWS V14.01,2013-01-16 22:30:00,
2013-01-16 16:32:00,36.2,35.2,30.05,NNW,338,10.0,10.0,96,0.00,,---,0.08,VWS V14.01,2013-01-16 22:32:00,
2013-01-16 16:37:00,36.0,35.0,30.05,NNW,339,6.0,10.0,96,0.00,,---,0.08,VWS V14.01,2013-01-16 22:37:00,
2013-01-16 16:42:00,36.2,35.2,30.05,NNW,341,3.0,10.0,96,0.00,,---,0.08,VWS V14.01,2013-01-16 22:42:00,
2013-01-16 16:45:00,36.0,35.0,30.05,North,360,7.0,10.0,96,0.00,,---,0.08,VWS V14.01,2013-01-16 22:45:00,
2013-01-16 16:47:00,36.2,35.2,30.05,North,355,5.0,7.0,96,0.00,,---,0.08,VWS V14.01,2013-01-16 22:47:00,
2013-01-16 16:53:00,36.2,35.2,30.05,North,5,4.0,7.0,96,0.00,,---,0.08,VWS V14.01,2013-01-16 22:53:00,
2013-01-16 16:58:00,36.3,35.3,30.05,NNW,327,2.0,7.0,96,0.00,,---,0.08,VWS V14.01,2013-01-16 22:58:00,
2013-01-16 17:00:00,36.3,35.3,30.06,NNW,327,2.0,7.0,96,0.00,,---,0.08,VWS V14.01,2013-01-16 23:00:00,
2013-01-16 17:03:00,36.3,35.3,30.06,NW,322,3.0,5.0,96,0.00,,---,0.08,VWS V14.01,2013-01-16 23:03:00,
2013-01-16 17:08:00,36.3,35.3,30.06,NNW,335,1.0,6.0,96,0.00,,---,0.08,VWS V14.01,2013-01-16 23:08:00,
2013-01-16 17:13:00,36.3,35.3,30.06,NNE,20,3.0,6.0,96,0.00,,---,0.08,VWS V14.01,2013-01-16 23:13:00,
2013-01-16 17:15:00,36.3,35.3,30.06,North,11,4.0,6.0,96,0.00,,---,0.08,VWS V14.01,2013-01-16 23:15:00,
2013-01-16 17:18:00,36.3,35.3,30.06,NNW,342,2.0,6.0,96,0.00,,---,0.08,VWS V14.01,2013-01-16 23:18:00,
2013-01-16 17:23:00,36.5,35.5,30.06,NNE,29,0.0,6.0,96,0.00,,---,0.08,VWS V14.01,2013-01-16 23:23:00,
2013-01-16 17:28:00,36.5,35.5,30.06,North,5,2.0,6.0,96,0.00,,---,0.08,VWS V14.01,2013-01-16 23:28:00,
2013-01-16 17:30:00,36.5,35.5,30.06,North,5,0.0,6.0,96,0.00,,---,0.08,VWS V14.01,2013-01-16 23:30:00,
2013-01-16 17:33:00,36.5,35.5,30.06,North,5,0.0,3.0,96,0.00,,---,0.08,VWS V14.01,2013-01-16 23:33:00,
2013-01-16 17:38:00,36.5,35.5,30.06,North,5,2.0,4.0,96,0.00,,---,0.08,VWS V14.01,2013-01-16 23:38:00,
2013-01-16 17:43:00,36.5,35.5,30.06,North,5,0.0,4.0,96,0.00,,---,0.08,VWS V14.01,2013-01-16 23:43:00,
2013-01-16 17:45:00,36.5,35.5,30.06,North,5,3.0,4.0,96,0.00,,---,0.08,VWS V14.01,2013-01-16 23:45:00,
2013-01-16 17:49:00,36.5,35.5,30.06,North,355,3.0,4.0,96,0.00,,---,0.08,VWS V14.01,2013-01-16 23:49:00,
2013-01-16 17:54:00,36.6,35.6,30.06,NNW,340,0.0,5.0,96,0.00,,---,0.08,VWS V14.01,2013-01-16 23:54:00,
2013-01-16 17:59:00,36.5,35.5,30.07,NNW,333,3.0,5.0,96,0.00,,---,0.08,VWS V14.01,2013-01-16 23:59:00,
2013-01-16 18:00:00,36.5,35.5,30.07,NNW,333,2.0,5.0,96,0.00,,---,0.08,VWS V14.01,2013-01-17 00:00:00,
2013-01-16 18:04:00,36.5,35.5,30.07,NW,314,2.0,5.0,96,0.00,,---,0.08,VWS V14.01,2013-01-17 00:04:00,
2013-01-16 18:09:00,36.5,35.5,30.07,North,350,4.0,5.0,96,0.00,,---,0.08,VWS V14.01,2013-01-17 00:09:00,
2013-01-16 18:14:00,36.3,35.3,30.08,NW,322,3.0,6.0,96,0.00,,---,0.08,VWS V14.01,2013-01-17 00:14:00,
2013-01-16 18:15:00,36.3,35.3,30.08,NW,325,3.0,6.0,96,0.00,,---,0.08,VWS V14.01,2013-01-17 00:15:00,
2013-01-16 18:19:00,36.3,35.3,30.08,NNW,339,0.0,5.0,96,0.00,,---,0.08,VWS V14.01,2013-01-17 00:19:00,
2013-01-16 18:24:00,36.3,35.3,30.08,NNW,338,2.0,5.0,96,0.00,,---,0.08,VWS V14.01,2013-01-17 00:24:00,
2013-01-16 18:29:00,36.3,35.3,30.08,NNW,335,2.0,3.0,96,0.00,,---,0.08,VWS V14.01,2013-01-17 00:29:00,
2013-01-16 18:30:00,36.3,35.3,30.08,NNW,335,3.0,5.0,96,0.00,,---,0.08,VWS V14.01,2013-01-17 00:30:00,
2013-01-16 18:34:00,36.3,35.3,30.08,NNW,334,2.0,3.0,96,0.00,,---,0.08,VWS V14.01,2013-01-17 00:34:00,
2013-01-16 18:40:00,36.3,35.3,30.08,NNW,343,4.0,6.0,96,0.00,,---,0.08,VWS V14.01,2013-01-17 00:40:00,
2013-01-16 18:45:00,36.3,35.3,30.10,NNW,343,3.0,3.0,96,0.00,,---,0.08,VWS V14.01,2013-01-17 00:45:00,
2013-01-16 18:50:00,36.3,35.3,30.10,NNW,340,2.0,4.0,96,0.00,,---,0.08,VWS V14.01,2013-01-17 00:50:00,
2013-01-16 18:55:00,36.5,35.5,30.10,NNW,340,0.0,4.0,96,0.00,,---,0.08,VWS V14.01,2013-01-17 00:55:00,
2013-01-16 19:00:00,36.5,35.5,30.10,NW,319,2.0,4.0,96,0.00,,---,0.08,VWS V14.01,2013-01-17 01:00:00,
2013-01-16 19:05:00,36.5,35.5,30.10,NNW,331,2.0,5.0,96,0.00,,---,0.08,VWS V14.01,2013-01-17 01:05:00,
2013-01-16 19:10:00,36.5,35.5,30.10,North,5,3.0,5.0,96,0.00,,---,0.08,VWS V14.01,2013-01-17 01:10:00,
2013-01-16 19:15:00,36.5,35.5,30.10,North,360,0.0,1.0,96,0.00,,---,0.08,VWS V14.01,2013-01-17 01:15:00,
2013-01-16 19:20:00,36.5,35.5,30.10,North,360,4.0,4.0,96,0.00,,---,0.08,VWS V14.01,2013-01-17 01:20:00,
2013-01-16 19:25:00,36.5,35.5,30.10,North,355,4.0,5.0,96,0.00,,---,0.08,VWS V14.01,2013-01-17 01:25:00,
2013-01-16 19:30:00,36.5,35.5,30.11,North,355,3.0,5.0,96,0.00,,---,0.08,VWS V14.01,2013-01-17 01:30:00,
2013-01-16 19:35:00,36.5,35.5,30.11,North,355,0.0,5.0,96,0.01,,---,0.09,VWS V14.01,2013-01-17 01:35:00,
2013-01-16 19:40:00,36.5,35.5,30.11,WNW,300,4.0,5.0,96,0.01,,---,0.09,VWS V14.01,2013-01-17 01:40:00,
2013-01-16 19:45:00,36.5,35.5,30.11,NW,321,4.0,5.0,96,0.01,,---,0.09,VWS V14.01,2013-01-17 01:45:00,
2013-01-16 19:46:00,36.5,35.5,30.11,NW,315,4.0,6.0,96,0.01,,---,0.09,VWS V14.01,2013-01-17 01:46:00,
2013-01-16 19:51:00,36.5,35.5,30.11,NW,314,4.0,6.0,96,0.01,,---,0.09,VWS V14.01,2013-01-17 01:51:00,
2013-01-16 19:56:00,36.6,35.6,30.11,NNW,342,5.0,6.0,96,0.01,,---,0.09,VWS V14.01,2013-01-17 01:56:00,
2013-01-16 20:00:00,36.6,35.6,30.11,NNW,335,5.0,7.0,96,0.01,,---,0.09,VWS V14.01,2013-01-17 02:00:00,
2013-01-16 20:01:00,36.6,35.6,30.11,NNW,331,6.0,9.0,96,0.01,,---,0.09,VWS V14.01,2013-01-17 02:01:00,
2013-01-16 20:06:00,36.6,35.6,30.11,NNW,337,4.0,9.0,96,0.01,,---,0.09,VWS V14.01,2013-01-17 02:06:00,
2013-01-16 20:11:00,36.5,35.5,30.11,NNW,344,5.0,10.0,96,0.01,,---,0.09,VWS V14.01,2013-01-17 02:11:00,
2013-01-16 20:15:00,36.6,35.6,30.11,NW,319,4.0,10.0,96,0.01,,---,0.09,VWS V14.01,2013-01-17 02:15:00,
2013-01-16 20:16:00,36.6,35.6,30.11,WNW,303,2.0,5.0,96,0.01,,---,0.09,VWS V14.01,2013-01-17 02:16:00,
2013-01-16 20:21:00,36.6,35.6,30.11,North,355,4.0,5.0,96,0.01,,---,0.09,VWS V14.01,2013-01-17 02:21:00,
2013-01-16 20:27:00,36.6,35.6,30.11,NNW,327,5.0,5.0,96,0.01,,---,0.09,VWS V14.01,2013-01-17 02:27:00,
2013-01-16 20:30:00,36.6,35.8,30.11,NNW,336,4.0,6.0,97,0.01,,---,0.09,VWS V14.01,2013-01-17 02:30:00,
2013-01-16 20:32:00,36.6,35.6,30.11,NNW,331,6.0,6.0,96,0.01,,---,0.09,VWS V14.01,2013-01-17 02:32:00,
2013-01-16 20:37:00,36.6,35.8,30.11,NW,319,5.0,6.0,97,0.01,,---,0.09,VWS V14.01,2013-01-17 02:37:00,
2013-01-16 20:42:00,36.8,36.0,30.11,West,280,3.0,6.0,97,0.01,,---,0.09,VWS V14.01,2013-01-17 02:42:00,
2013-01-16 20:45:00,36.8,36.0,30.11,NW,320,5.0,6.0,97,0.01,,---,0.09,VWS V14.01,2013-01-17 02:45:00,
2013-01-16 20:47:00,36.8,36.0,30.11,WNW,282,5.0,5.0,97,0.00,,---,0.09,VWS V14.01,2013-01-17 02:47:00,
2013-01-16 20:52:00,36.8,36.0,30.11,NW,321,3.0,10.0,97,0.00,,---,0.09,VWS V14.01,2013-01-17 02:52:00,
2013-01-16 20:57:00,36.9,36.1,30.11,NW,321,10.0,10.0,97,0.00,,---,0.09,VWS V14.01,2013-01-17 02:57:00,
2013-01-16 21:00:00,36.8,36.0,30.11,NW,309,11.0,12.0,97,0.00,,---,0.09,VWS V14.01,2013-01-17 03:00:00,
2013-01-16 21:02:00,36.8,36.0,30.11,NW,306,3.0,12.0,97,0.00,,---,0.09,VWS V14.01,2013-01-17 03:02:00,
2013-01-16 21:07:00,36.6,35.8,30.11,NW,324,2.0,12.0,97,0.00,,---,0.09,VWS V14.01,2013-01-17 03:07:00,
2013-01-16 21:13:00,36.6,35.8,30.11,NW,304,3.0,12.0,97,0.00,,---,0.09,VWS V14.01,2013-01-17 03:13:00,
2013-01-16 21:15:00,36.6,35.8,30.11,NW,316,4.0,12.0,97,0.00,,---,0.09,VWS V14.01,2013-01-17 03:15:00,
2013-01-16 21:18:00,36.6,35.8,30.11,NW,318,10.0,12.0,97,0.00,,---,0.09,VWS V14.01,2013-01-17 03:18:00,
2013-01-16 21:23:00,36.6,35.8,30.11,NW,314,3.0,12.0,97,0.00,,---,0.09,VWS V14.01,2013-01-17 03:23:00,
2013-01-16 21:28:00,36.6,35.8,30.11,NW,311,2.0,12.0,97,0.00,,---,0.09,VWS V14.01,2013-01-17 03:28:00,
2013-01-16 21:30:00,36.6,35.8,30.12,NW,321,2.0,12.0,97,0.00,,---,0.09,VWS V14.01,2013-01-17 03:30:00,
2013-01-16 21:33:00,36.5,35.7,30.12,NNW,327,5.0,10.0,97,0.00,,---,0.09,VWS V14.01,2013-01-17 03:33:00,
2013-01-16 21:38:00,36.5,35.7,30.12,WNW,284,7.0,14.0,97,0.00,,---,0.09,VWS V14.01,2013-01-17 03:38:00,
2013-01-16 21:43:00,36.5,35.7,30.12,NW,323,4.0,14.0,97,0.00,,---,0.09,VWS V14.01,2013-01-17 03:43:00,
2013-01-16 21:45:00,36.5,35.7,30.12,NW,321,6.0,14.0,97,0.00,,---,0.09,VWS V14.01,2013-01-17 03:45:00,
2013-01-16 21:48:00,36.5,35.7,30.12,NW,313,4.0,9.0,97,0.00,,---,0.09,VWS V14.01,2013-01-17 03:48:00,
2013-01-16 21:53:00,36.3,35.5,30.12,NW,307,9.0,19.0,97,0.00,,---,0.09,VWS V14.01,2013-01-17 03:53:00,
2013-01-16 21:58:00,36.3,35.5,30.12,NNW,329,6.0,19.0,97,0.00,,---,0.09,VWS V14.01,2013-01-17 03:58:00,
2013-01-16 22:00:00,36.3,35.5,30.12,NW,304,10.0,19.0,97,0.00,,---,0.09,VWS V14.01,2013-01-17 04:00:00,
2013-01-16 22:03:00,36.2,35.4,30.12,NW,322,9.0,14.0,97,0.01,,---,0.10,VWS V14.01,2013-01-17 04:03:00,
2013-01-16 22:08:00,36.2,35.4,30.12,NW,315,4.0,19.0,97,0.01,,---,0.10,VWS V14.01,2013-01-17 04:08:00,
2013-01-16 22:13:00,36.2,35.4,30.12,NNW,338,3.0,19.0,97,0.01,,---,0.10,VWS V14.01,2013-01-17 04:13:00,
2013-01-16 22:15:00,36.2,35.4,30.12,NNW,333,3.0,19.0,97,0.01,,---,0.10,VWS V14.01,2013-01-17 04:15:00,
2013-01-16 22:18:00,36.2,35.4,30.12,NNW,330,4.0,10.0,97,0.01,,---,0.10,VWS V14.01,2013-01-17 04:18:00,
2013-01-16 22:23:00,36.2,35.4,30.12,NW,325,6.0,11.0,97,0.01,,---,0.10,VWS V14.01,2013-01-17 04:23:00,
2013-01-16 22:29:00,36.0,36.0,30.11,NW,315,3.0,15.0,100,0.01,,---,0.10,VWS V14.01,2013-01-17 04:29:00,
2013-01-16 22:30:00,36.0,36.0,30.11,NW,321,3.0,15.0,100,0.01,,---,0.10,VWS V14.01,2013-01-17 04:30:00,
2013-01-16 22:34:00,36.2,35.4,30.11,NNW,340,3.0,10.0,97,0.01,,---,0.10,VWS V14.01,2013-01-17 04:34:00,
2013-01-16 22:39:00,36.0,35.2,30.11,NW,311,8.0,13.0,97,0.01,,---,0.10,VWS V14.01,2013-01-17 04:39:00,
2013-01-16 22:44:00,36.0,35.2,30.11,NW,304,3.0,15.0,97,0.01,,---,0.10,VWS V14.01,2013-01-17 04:44:00,
2013-01-16 22:45:00,36.0,35.2,30.11,NW,309,4.0,15.0,97,0.01,,---,0.10,VWS V14.01,2013-01-17 04:45:00,
2013-01-16 22:49:00,36.2,35.4,30.11,NW,309,6.0,15.0,97,0.01,,---,0.10,VWS V14.01,2013-01-17 04:49:00,
2013-01-16 22:54:00,36.2,35.4,30.11,NW,317,5.0,15.0,97,0.01,,---,0.10,VWS V14.01,2013-01-17 04:54:00,
2013-01-16 22:59:00,36.2,35.4,30.11,NW,325,3.0,15.0,97,0.01,,---,0.10,VWS V14.01,2013-01-17 04:59:00,
2013-01-16 23:00:00,36.2,35.4,30.11,WNW,285,3.0,5.0,97,0.01,,---,0.10,VWS V14.01,2013-01-17 05:00:00,
2013-01-16 23:03:00,36.3,35.5,30.11,WNW,294,4.0,5.0,97,0.01,,---,0.10,VWS V14.01,2013-01-17 05:03:00,
2013-01-16 23:08:00,36.3,35.5,30.11,NW,310,4.0,10.0,97,0.01,,---,0.10,VWS V14.01,2013-01-17 05:08:00,
2013-01-16 23:13:00,36.3,35.5,30.11,NNW,327,3.0,11.0,97,0.01,,---,0.10,VWS V14.01,2013-01-17 05:13:00,
2013-01-16 23:15:00,36.3,35.5,30.11,NW,308,5.0,11.0,97,0.01,,---,0.10,VWS V14.01,2013-01-17 05:15:00,
2013-01-16 23:18:00,36.3,35.5,30.11,NW,311,4.0,11.0,97,0.00,,---,0.10,VWS V14.01,2013-01-17 05:18:00,
2013-01-16 23:23:00,36.3,35.5,30.11,NW,304,4.0,11.0,97,0.01,,---,0.11,VWS V14.01,2013-01-17 05:23:00,
2013-01-16 23:28:00,36.3,35.5,30.11,NNW,338,6.0,11.0,97,0.01,,---,0.11,VWS V14.01,2013-01-17 05:28:00,
2013-01-16 23:30:00,36.3,35.5,30.11,WNW,300,3.0,11.0,97,0.01,,---,0.11,VWS V14.01,2013-01-17 05:30:00,
2013-01-16 23:34:00,36.3,35.3,30.11,North,349,7.0,9.0,96,0.01,,---,0.11,VWS V14.01,2013-01-17 05:34:00,
2013-01-16 23:39:00,36.2,35.2,30.11,WNW,300,2.0,11.0,96,0.01,,---,0.11,VWS V14.01,2013-01-17 05:39:00,
2013-01-16 23:44:00,36.2,35.2,30.11,NNW,331,6.0,11.0,96,0.01,,---,0.11,VWS V14.01,2013-01-17 05:44:00,
2013-01-16 23:45:00,36.2,35.2,30.11,NNW,339,5.0,11.0,96,0.01,,---,0.11,VWS V14.01,2013-01-17 05:45:00,
2013-01-16 23:49:00,36.3,35.5,30.11,NW,315,4.0,8.0,97,0.01,,---,0.11,VWS V14.01,2013-01-17 05:49:00,
2013-01-16 23:54:00,36.3,35.3,30.11,NNW,328,4.0,9.0,96,0.01,,---,0.11,VWS V14.01,2013-01-17 05:54:00,
2013-01-16 23:59:00,36.3,35.3,30.11,NW,323,4.0,9.0,96,0.01,,---,0.11,VWS V14.01,2013-01-17 05:59:00,